Date,TemperatureHighF,TemperatureAvgF,TemperatureLowF,DewpointHighF,DewpointAvgF,DewpointLowF,HumidityHigh,HumidityAvg,HumidityLow,PressureMaxIn,PressureMinIn,WindSpeedMaxMPH,WindSpeedAvgMPH,GustSpeedMaxMPH,PrecipitationSumIn
2013-9-1,93.7,81.8,73.1,70.0,68.4,66.0,83,65,44,29.88,29.76,10,1,0,0.00
2013-9-2,94.1,81.6,69.8,69.0,66.2,64.0,83,62,40,29.86,29.74,9,1,0,0.00
2013-9-3,99.3,84.3,73.2,67.0,63.0,58.0,73,52,28,29.86,29.75,6,1,0,0.00
2013-9-4,101.8,86.6,72.9,64.0,60.8,58.0,66,44,27,29.86,29.76,6,1,0,0.00
2013-9-5,103.0,87.5,74.2,62.0,58.8,55.0,63,40,23,29.83,29.74,12,1,0,0.00
2013-9-6,101.8,86.2,74.2,62.0,56.3,53.0,59,38,21,29.82,29.72,10,1,0,0.00
2013-9-7,100.8,86.2,75.0,65.0,58.9,54.0,58,41,22,29.82,29.71,9,1,0,0.00
2013-9-8,99.2,81.4,68.8,61.0,54.1,44.0,64,42,15,29.79,29.67,7,1,0,0.00
2013-9-9,95.3,77.8,69.5,59.0,55.4,45.0,66,49,20,29.76,29.65,7,1,0,0.00
2013-9-10,85.1,71.3,61.1,61.0,58.4,56.0,87,66,42,29.90,29.75,7,1,0,0.00
2013-9-11,84.7,70.0,59.5,61.0,58.8,56.0,88,70,44,29.96,29.86,8,1,0,0.00
2013-9-12,92.6,74.9,60.0,61.0,56.4,50.0,87,57,24,29.91,29.76,7,1,0,0.00
2013-9-13,92.2,76.6,61.0,58.0,50.4,44.0,58,42,26,29.81,29.62,9,1,0,0.00
2013-9-14,96.4,80.0,64.9,61.0,55.3,48.0,64,44,29,29.68,29.56,6,1,0,0.00
2013-9-15,101.3,81.3,65.3,61.0,55.0,36.0,70,46,11,29.73,29.63,12,1,0,0.00
2013-9-16,100.3,80.7,64.9,58.0,51.3,41.0,61,40,16,29.77,29.66,10,1,0,0.00
2013-9-17,86.6,71.5,60.5,62.0,56.6,50.0,80,61,40,29.76,29.65,7,1,0,0.00
2013-9-18,80.6,67.2,57.9,61.0,57.6,54.0,93,73,44,29.78,29.69,11,1,0,0.00
2013-9-19,85.1,68.8,57.4,63.0,58.8,53.0,88,72,47,29.80,29.69,6,1,0,0.00
2013-9-20,76.0,66.2,61.4,63.0,60.6,58.0,92,83,64,29.85,29.78,5,0,0,0.00
2013-9-21,81.3,68.3,62.1,61.0,57.4,52.0,88,70,37,29.87,29.74,12,1,0,0.00
2013-9-22,79.0,66.3,55.5,56.0,53.5,51.0,88,65,39,29.81,29.73,9,1,0,0.00
2013-9-23,92.8,74.6,55.9,52.0,46.1,38.0,76,43,15,29.86,29.77,6,1,0,0.00
2013-9-24,92.0,73.8,59.7,49.0,40.8,-99.9,54,34,14,29.89,29.78,11,-9,0,0.00
2013-9-25,84.1,68.0,56.9,57.0,50.4,44.0,73,55,31,29.82,29.62,10,1,0,0.00
2013-9-26,74.4,63.4,56.1,55.0,47.7,40.0,83,59,29,29.87,29.68,10,1,0,0.00
2013-9-27,85.0,68.2,53.2,44.0,34.2,20.0,67,34,9,29.98,29.86,13,1,0,0.00
2013-9-28,89.8,71.8,54.7,39.0,30.8,20.0,46,25,8,30.02,29.91,5,0,0,0.00
2013-9-29,89.5,71.1,54.7,40.0,34.5,28.0,48,28,14,30.03,29.91,6,1,0,0.00
2013-9-30,87.4,70.8,54.5,52.0,40.7,32.0,53,35,18,29.97,29.80,7,1,0,0.00